Time;durP1;ratioP1;P1;durP2;ratioP2;P2;SDS_P1;SDS_P2;PMS_P1;PMS_P2;Temp;Humidity;BMP_temperature;BMP_pressure;BME280_temperature;BME280_humidity;BME280_pressure;Samples;Min_cycle;Max_cycle;Signal;HPM_P1;HPM_P2
2021/10/10 00:00:38;;;;;;;48.58;30.05;;;11.20;99.90;;;;;;5078348;28;20051;-74
2021/10/10 00:03:03;;;;;;;48.25;28.33;;;11.10;99.90;;;;;;5078781;28;20051;-74
2021/10/10 00:05:29;;;;;;;48.65;30.70;;;11.10;99.90;;;;;;5087946;28;20099;-74
2021/10/10 00:07:55;;;;;;;49.70;31.75;;;11.10;99.90;;;;;;5083565;28;20031;-74
2021/10/10 00:10:20;;;;;;;47.47;30.73;;;11.10;99.90;;;;;;5083093;28;20025;-74
2021/10/10 00:12:46;;;;;;;48.85;31.05;;;11.10;99.90;;;;;;5086145;28;20103;-74
2021/10/10 00:15:14;;;;;;;48.53;32.08;;;11.00;99.90;;;;;;5076534;28;20042;-74
2021/10/10 00:17:39;;;;;;;48.20;30.73;;;11.00;99.90;;;;;;5063623;28;20062;-75
2021/10/10 00:20:07;;;;;;;47.55;28.33;;;11.00;99.90;;;;;;5080452;28;20422;-74
2021/10/10 00:22:33;;;;;;;48.05;30.05;;;10.90;99.90;;;;;;5076312;28;20081;-74
2021/10/10 00:24:58;;;;;;;49.38;32.83;;;10.90;99.90;;;;;;5077254;28;20042;-73
2021/10/10 00:27:24;;;;;;;44.22;28.40;;;10.90;99.90;;;;;;5089352;28;20567;-74
2021/10/10 00:29:50;;;;;;;43.83;29.52;;;10.90;99.90;;;;;;5079296;28;20024;-75
2021/10/10 00:32:17;;;;;;;48.13;31.13;;;10.90;99.90;;;;;;5079759;28;20025;-74
2021/10/10 00:34:43;;;;;;;52.22;28.15;;;10.80;99.90;;;;;;5077971;28;20118;-74
2021/10/10 00:37:09;;;;;;;45.85;29.67;;;10.80;99.90;;;;;;5070147;28;20541;-74
2021/10/10 00:39:35;;;;;;;44.60;28.17;;;10.80;99.90;;;;;;5087682;28;20040;-74
2021/10/10 00:42:00;;;;;;;47.22;30.60;;;10.80;99.90;;;;;;5067366;28;20021;-74
2021/10/10 00:44:26;;;;;;;51.25;30.75;;;10.80;99.90;;;;;;5075917;28;20040;-73
2021/10/10 00:46:52;;;;;;;52.15;30.67;;;10.70;99.90;;;;;;5077798;28;20028;-74
2021/10/10 00:49:18;;;;;;;43.65;29.23;;;10.70;99.90;;;;;;5088975;28;20038;-74
2021/10/10 00:51:45;;;;;;;49.90;30.33;;;10.70;99.90;;;;;;5067608;28;20033;-74
2021/10/10 00:54:15;;;;;;;49.50;31.98;;;10.70;99.90;;;;;;5082601;28;20035;-74
2021/10/10 00:56:43;;;;;;;46.03;31.48;;;10.60;99.90;;;;;;5062805;28;20025;-74
2021/10/10 00:59:11;;;;;;;51.40;32.22;;;10.60;99.90;;;;;;5086280;28;20071;-74
2021/10/10 01:01:37;;;;;;;48.10;31.08;;;10.60;99.90;;;;;;5076688;28;20035;-74
2021/10/10 01:04:02;;;;;;;46.80;30.10;;;10.60;99.90;;;;;;5084829;28;20028;-75
2021/10/10 01:06:28;;;;;;;54.45;33.35;;;10.60;99.90;;;;;;5080781;28;20483;-74
2021/10/10 01:08:54;;;;;;;51.22;31.35;;;10.60;99.90;;;;;;5077320;28;20037;-74
2021/10/10 01:11:20;;;;;;;50.40;30.83;;;10.50;99.90;;;;;;5081321;28;20140;-75
2021/10/10 01:13:46;;;;;;;53.13;32.83;;;10.50;99.90;;;;;;5074554;28;20024;-75
2021/10/10 01:16:12;;;;;;;50.70;31.83;;;10.50;99.90;;;;;;5082197;28;20027;-77
2021/10/10 01:18:37;;;;;;;51.17;32.55;;;10.50;99.90;;;;;;5063938;28;20028;-75
2021/10/10 01:21:03;;;;;;;51.92;31.95;;;10.40;99.90;;;;;;5060818;28;20036;-75
2021/10/10 01:23:29;;;;;;;60.33;35.35;;;10.40;99.90;;;;;;5081837;28;20451;-75
2021/10/10 01:25:54;;;;;;;50.95;30.95;;;10.40;99.90;;;;;;5061939;28;20477;-75
2021/10/10 01:28:20;;;;;;;49.50;29.58;;;10.40;99.90;;;;;;5052603;28;20135;-75
2021/10/10 01:30:46;;;;;;;46.88;31.00;;;10.40;99.90;;;;;;5052571;28;20020;-75
2021/10/10 01:33:13;;;;;;;51.72;29.85;;;10.40;99.90;;;;;;5052874;28;20025;-75
2021/10/10 01:35:40;;;;;;;47.10;29.58;;;10.40;99.90;;;;;;5051980;28;20419;-74
2021/10/10 01:38:08;;;;;;;50.03;29.00;;;10.30;99.90;;;;;;5064223;28;20524;-75
2021/10/10 01:40:34;;;;;;;47.38;30.35;;;10.30;99.90;;;;;;5071465;28;20029;-75
2021/10/10 01:43:05;;;;;;;44.95;29.83;;;10.30;99.90;;;;;;5070689;28;20028;-76
2021/10/10 01:45:31;;;;;;;49.10;30.15;;;10.30;99.90;;;;;;5072641;28;20105;-75
2021/10/10 01:47:57;;;;;;;49.88;31.40;;;10.30;99.90;;;;;;5072402;28;20442;-76
2021/10/10 01:50:23;;;;;;;49.38;31.50;;;10.20;99.90;;;;;;5072533;28;20024;-75
2021/10/10 01:52:50;;;;;;;52.83;32.13;;;10.20;99.90;;;;;;5072243;28;20031;-76
2021/10/10 01:55:17;;;;;;;52.05;29.88;;;10.20;99.90;;;;;;5069093;28;20096;-76
2021/10/10 01:57:42;;;;;;;51.95;30.95;;;10.20;99.90;;;;;;5052134;28;20044;-76
2021/10/10 02:00:09;;;;;;;45.35;28.38;;;10.20;99.90;;;;;;5052456;28;20029;-77
2021/10/10 02:02:35;;;;;;;49.88;30.52;;;10.10;99.90;;;;;;5052621;28;20025;-76
2021/10/10 02:05:01;;;;;;;53.70;33.97;;;10.10;99.90;;;;;;5051261;28;20075;-76
2021/10/10 02:07:27;;;;;;;52.05;33.65;;;10.10;99.90;;;;;;5053953;28;20079;-76
2021/10/10 02:09:52;;;;;;;50.50;33.42;;;10.10;99.90;;;;;;5072778;28;20550;-75
2021/10/10 02:12:18;;;;;;;48.15;31.27;;;10.10;99.90;;;;;;5072240;28;20191;-76
2021/10/10 02:14:44;;;;;;;46.05;30.58;;;10.10;99.90;;;;;;5072744;28;20472;-76
2021/10/10 02:17:09;;;;;;;52.03;31.33;;;10.10;99.90;;;;;;5072348;28;20036;-75
2021/10/10 02:19:35;;;;;;;44.95;29.27;;;10.10;99.90;;;;;;5070415;28;20021;-76
2021/10/10 02:22:01;;;;;;;49.92;29.75;;;10.00;99.90;;;;;;5072547;28;20032;-76
2021/10/10 02:24:26;;;;;;;46.25;30.48;;;10.00;99.90;;;;;;5071351;28;20025;-75
2021/10/10 02:26:52;;;;;;;48.95;30.73;;;10.00;99.90;;;;;;5072853;28;20478;-76
2021/10/10 02:29:18;;;;;;;45.80;29.33;;;10.00;99.90;;;;;;5074085;28;20067;-75
2021/10/10 02:31:44;;;;;;;46.35;28.52;;;10.00;99.90;;;;;;5075823;28;20354;-74
2021/10/10 02:34:14;;;;;;;50.50;32.60;;;9.90;99.90;;;;;;5075564;28;20038;-76
2021/10/10 02:36:41;;;;;;;51.08;35.00;;;9.90;99.90;;;;;;5076046;28;20016;-75
2021/10/10 02:39:08;;;;;;;43.33;28.23;;;9.90;99.90;;;;;;5061298;28;20378;-75
2021/10/10 02:41:34;;;;;;;47.90;28.95;;;9.80;99.90;;;;;;5055802;28;20057;-75
2021/10/10 02:44:00;;;;;;;46.20;27.33;;;9.80;99.90;;;;;;5070439;28;20373;-76
2021/10/10 02:46:26;;;;;;;46.05;29.42;;;9.90;99.90;;;;;;5072531;28;20074;-75
2021/10/10 02:48:52;;;;;;;47.22;28.40;;;9.80;99.90;;;;;;5053911;28;20098;-75
2021/10/10 02:51:17;;;;;;;52.28;31.23;;;9.80;99.90;;;;;;5056001;28;20017;-76
2021/10/10 02:53:43;;;;;;;50.17;30.25;;;9.80;99.90;;;;;;5055698;28;20091;-75
2021/10/10 02:56:09;;;;;;;54.17;31.42;;;9.80;99.90;;;;;;5055572;28;20029;-77
2021/10/10 02:58:34;;;;;;;57.53;32.92;;;9.80;99.90;;;;;;5065424;28;20035;-77
2021/10/10 03:01:00;;;;;;;48.70;28.48;;;9.80;99.90;;;;;;5075639;28;20059;-77
2021/10/10 03:03:26;;;;;;;47.53;27.70;;;9.70;99.90;;;;;;5075007;28;20021;-76
2021/10/10 03:05:51;;;;;;;45.65;27.25;;;9.70;99.90;;;;;;5075873;28;20021;-76
2021/10/10 03:08:17;;;;;;;51.25;29.20;;;9.70;99.90;;;;;;5075330;28;20388;-76
2021/10/10 03:10:43;;;;;;;55.85;32.58;;;9.60;99.90;;;;;;5072946;28;20476;-76
2021/10/10 03:13:09;;;;;;;48.88;29.60;;;9.60;99.90;;;;;;5053521;28;20033;-76
2021/10/10 03:15:35;;;;;;;47.95;28.67;;;9.60;99.90;;;;;;5054299;28;20358;-76
2021/10/10 03:18:01;;;;;;;48.20;29.27;;;9.60;99.90;;;;;;5052457;28;20037;-76
2021/10/10 03:20:27;;;;;;;49.63;29.23;;;9.60;99.90;;;;;;5054764;28;20043;-76
2021/10/10 03:22:52;;;;;;;43.65;26.35;;;9.60;99.90;;;;;;5055020;28;20484;-76
2021/10/10 03:25:18;;;;;;;46.80;30.08;;;9.60;99.90;;;;;;5053788;28;20021;-76
2021/10/10 03:27:44;;;;;;;53.88;30.73;;;9.60;99.90;;;;;;5056000;28;20393;-76
2021/10/10 03:30:10;;;;;;;50.17;30.77;;;9.60;99.90;;;;;;5061664;28;20033;-76
2021/10/10 03:32:36;;;;;;;53.65;32.55;;;9.60;99.90;;;;;;5054268;28;20057;-76
2021/10/10 03:35:02;;;;;;;60.90;35.55;;;9.60;99.90;;;;;;5054981;28;20028;-76
2021/10/10 03:37:28;;;;;;;63.92;35.50;;;9.60;99.90;;;;;;5058812;28;20042;-76
2021/10/10 03:39:54;;;;;;;61.63;35.85;;;9.60;99.90;;;;;;5071817;28;20028;-76
2021/10/10 03:42:19;;;;;;;58.22;33.13;;;9.60;99.90;;;;;;5074974;28;20017;-76
2021/10/10 03:44:46;;;;;;;54.38;33.80;;;9.50;99.90;;;;;;5074592;28;20534;-77
2021/10/10 03:47:13;;;;;;;50.72;28.67;;;9.50;99.90;;;;;;5072344;28;20074;-79
2021/10/10 03:49:39;;;;;;;56.35;31.73;;;9.50;99.90;;;;;;5074839;28;20025;-78
2021/10/10 03:52:05;;;;;;;48.35;29.90;;;9.40;99.90;;;;;;5071549;28;20021;-77
2021/10/10 03:57:20;;;;;;;54.03;29.02;;;9.30;99.90;;;;;;5054663;28;20148;-77
2021/10/10 03:59:49;;;;;;;61.15;34.08;;;9.40;99.90;;;;;;5054291;28;20021;-77
2021/10/10 04:02:14;;;;;;;58.67;32.00;;;9.40;99.90;;;;;;5054298;28;20163;-74
2021/10/10 04:04:40;;;;;;;61.38;33.00;;;9.40;99.90;;;;;;5054297;28;20049;-77
2021/10/10 04:07:05;;;;;;;67.18;33.22;;;9.50;99.90;;;;;;5053439;28;20033;-77
2021/10/10 04:09:31;;;;;;;69.47;35.90;;;9.40;99.90;;;;;;5054283;28;20123;-77
2021/10/10 04:11:57;;;;;;;71.07;34.15;;;9.40;99.90;;;;;;5060924;28;20111;-77
2021/10/10 04:14:23;;;;;;;75.32;33.35;;;9.40;99.90;;;;;;5074003;28;20496;-76
2021/10/10 04:16:48;;;;;;;64.45;32.78;;;9.40;99.90;;;;;;5072270;28;20025;-76
2021/10/10 04:19:14;;;;;;;61.17;32.65;;;9.20;99.90;;;;;;5069962;28;20009;-76
2021/10/10 04:21:39;;;;;;;44.58;27.80;;;9.30;99.90;;;;;;5054053;28;20063;-77
2021/10/10 04:24:05;;;;;;;64.07;30.55;;;9.30;99.90;;;;;;5054884;28;20108;-76
2021/10/10 04:26:30;;;;;;;63.25;32.03;;;9.30;99.90;;;;;;5056966;28;20047;-76
2021/10/10 04:28:56;;;;;;;51.75;31.33;;;9.20;99.90;;;;;;5063176;28;20032;-76
2021/10/10 04:31:22;;;;;;;67.43;31.25;;;9.20;99.90;;;;;;5073289;28;20021;-76
2021/10/10 04:33:47;;;;;;;104.65;36.30;;;9.30;99.90;;;;;;5073062;28;20593;-75
2021/10/10 04:36:13;;;;;;;72.28;32.08;;;9.20;99.90;;;;;;5073838;28;20039;-76
2021/10/10 04:38:38;;;;;;;68.30;31.55;;;9.20;99.90;;;;;;5056405;28;20500;-76
2021/10/10 04:41:04;;;;;;;55.03;28.50;;;9.20;99.90;;;;;;5053183;28;20037;-76
2021/10/10 04:43:29;;;;;;;76.72;28.83;;;9.20;99.90;;;;;;5063352;28;20092;-76
2021/10/10 04:45:55;;;;;;;53.67;29.00;;;9.20;99.90;;;;;;5072409;28;20024;-76
2021/10/10 04:48:21;;;;;;;59.00;31.20;;;9.20;99.90;;;;;;5072358;28;20071;-76
2021/10/10 04:50:46;;;;;;;53.63;27.15;;;9.20;99.90;;;;;;5073392;28;20376;-76
2021/10/10 04:53:12;;;;;;;54.88;31.80;;;9.20;99.90;;;;;;5071795;28;20032;-76
2021/10/10 04:55:38;;;;;;;44.47;27.85;;;9.20;99.90;;;;;;5073594;28;20083;-77
2021/10/10 04:58:04;;;;;;;39.90;27.48;;;9.20;99.90;;;;;;5069280;28;20044;-76
2021/10/10 05:00:29;;;;;;;41.15;26.73;;;9.20;99.90;;;;;;5053107;28;20467;-76
2021/10/10 05:02:55;;;;;;;56.60;29.48;;;9.20;99.90;;;;;;5052875;28;20021;-76
2021/10/10 05:05:21;;;;;;;60.25;27.83;;;9.20;99.90;;;;;;5052984;28;20029;-76
2021/10/10 05:07:46;;;;;;;64.97;26.88;;;9.10;99.90;;;;;;5052375;28;20393;-76
2021/10/10 05:10:12;;;;;;;63.05;29.38;;;9.10;99.90;;;;;;5052762;28;20029;-76
2021/10/10 05:12:37;;;;;;;46.42;26.60;;;9.00;99.90;;;;;;5052517;28;20025;-77
2021/10/10 05:15:05;;;;;;;37.05;25.15;;;9.00;99.90;;;;;;5053174;28;20037;-77
2021/10/10 05:17:31;;;;;;;196.70;41.65;;;9.00;99.90;;;;;;5050724;28;20461;-77
2021/10/10 05:19:56;;;;;;;52.45;26.63;;;9.00;99.90;;;;;;5053232;28;20070;-75
2021/10/10 05:22:22;;;;;;;64.30;27.63;;;8.90;99.90;;;;;;5053041;28;20651;-77
2021/10/10 05:24:48;;;;;;;36.60;23.77;;;8.90;99.90;;;;;;5052443;28;20029;-77
2021/10/10 05:27:14;;;;;;;34.90;25.77;;;8.90;99.90;;;;;;5052643;28;20033;-76
2021/10/10 05:29:39;;;;;;;38.72;25.63;;;8.90;99.90;;;;;;5067170;28;20032;-76
2021/10/10 05:32:05;;;;;;;36.42;23.60;;;8.80;99.90;;;;;;5072752;28;20024;-77
2021/10/10 05:34:32;;;;;;;74.10;27.33;;;8.80;99.90;;;;;;5073090;28;20059;-77
2021/10/10 05:36:57;;;;;;;74.53;27.27;;;8.80;99.90;;;;;;5072664;28;20016;-76
2021/10/10 05:39:23;;;;;;;50.70;29.45;;;8.80;99.90;;;;;;5070862;28;20024;-76
2021/10/10 05:41:49;;;;;;;59.13;28.75;;;8.90;99.90;;;;;;5070008;28;20036;-77
2021/10/10 05:44:14;;;;;;;45.72;28.05;;;8.90;99.90;;;;;;5070243;28;20565;-77
2021/10/10 05:46:40;;;;;;;59.60;30.88;;;8.90;99.90;;;;;;5053048;28;20021;-78
2021/10/10 05:49:06;;;;;;;52.28;30.55;;;8.90;99.90;;;;;;5034800;28;20041;-77
2021/10/10 05:51:31;;;;;;;36.58;24.00;;;8.80;99.90;;;;;;5051778;28;20021;-78
2021/10/10 05:53:57;;;;;;;33.67;26.05;;;8.80;99.90;;;;;;5051215;28;20469;-77
2021/10/10 05:56:22;;;;;;;35.75;25.60;;;8.70;99.90;;;;;;5051817;28;20033;-78
2021/10/10 05:58:55;;;;;;;32.53;23.35;;;8.80;99.90;;;;;;5059577;28;20548;-76
2021/10/10 06:01:21;;;;;;;41.15;25.15;;;8.70;99.90;;;;;;5075141;28;20025;-78
2021/10/10 06:03:46;;;;;;;52.85;26.15;;;8.70;99.90;;;;;;5061700;28;20021;-77
2021/10/10 06:06:12;;;;;;;37.95;24.10;;;8.70;99.90;;;;;;5055316;28;20025;-78
2021/10/10 06:08:37;;;;;;;111.07;29.70;;;8.80;99.90;;;;;;5055292;28;20040;-79
2021/10/10 06:11:04;;;;;;;87.72;31.52;;;8.80;99.90;;;;;;5056454;28;20033;-77
2021/10/10 06:13:29;;;;;;;38.92;26.92;;;8.80;99.90;;;;;;5060374;28;20029;-77
2021/10/10 06:15:55;;;;;;;78.13;29.63;;;8.80;99.90;;;;;;5056163;28;20021;-77
2021/10/10 06:18:22;;;;;;;66.10;31.08;;;8.80;99.90;;;;;;5071140;28;20380;-78
2021/10/10 06:20:48;;;;;;;171.10;41.58;;;8.80;99.90;;;;;;5075174;28;20017;-77
2021/10/10 06:23:13;;;;;;;54.20;30.58;;;8.90;99.90;;;;;;5076358;28;20103;-77
2021/10/10 06:25:40;;;;;;;61.55;30.45;;;8.80;99.90;;;;;;5075931;28;20035;-77
2021/10/10 06:28:06;;;;;;;109.60;32.40;;;8.80;99.90;;;;;;5062756;28;20044;-77
2021/10/10 06:30:32;;;;;;;122.97;30.30;;;8.90;99.90;;;;;;5055927;28;20018;-77
2021/10/10 06:32:58;;;;;;;104.00;30.73;;;8.80;99.90;;;;;;5066015;28;20032;-77
2021/10/10 06:35:23;;;;;;;105.60;29.77;;;8.90;99.90;;;;;;5076184;28;20086;-77
2021/10/10 06:37:49;;;;;;;179.20;37.17;;;8.90;99.90;;;;;;5060563;28;20052;-77
2021/10/10 06:40:14;;;;;;;151.07;33.40;;;8.80;99.90;;;;;;5055964;28;20017;-77
2021/10/10 06:42:40;;;;;;;173.57;40.03;;;8.80;99.90;;;;;;5063656;28;20455;-75
2021/10/10 06:45:06;;;;;;;93.35;33.10;;;8.80;99.90;;;;;;5078329;28;20074;-77
2021/10/10 06:47:32;;;;;;;103.47;32.55;;;8.90;99.90;;;;;;5075222;28;20028;-76
2021/10/10 06:49:57;;;;;;;63.83;31.75;;;9.00;99.90;;;;;;5073074;28;20035;-75
2021/10/10 06:52:23;;;;;;;83.18;33.80;;;8.90;99.90;;;;;;5075988;28;20468;-77
2021/10/10 06:54:49;;;;;;;89.32;34.95;;;9.00;99.90;;;;;;5075407;28;20357;-76
2021/10/10 06:57:14;;;;;;;58.95;33.10;;;8.80;99.90;;;;;;5074709;28;20054;-77
2021/10/10 06:59:40;;;;;;;71.70;30.65;;;8.90;99.90;;;;;;5060936;28;20025;-76
2021/10/10 07:02:09;;;;;;;95.05;35.20;;;9.00;99.90;;;;;;5074232;28;20020;-76
2021/10/10 07:04:34;;;;;;;146.90;39.97;;;9.10;99.90;;;;;;5074034;28;20021;-76
2021/10/10 07:07:00;;;;;;;95.78;35.55;;;9.20;99.90;;;;;;5067872;28;20086;-76
2021/10/10 07:09:25;;;;;;;69.22;35.80;;;9.20;99.90;;;;;;5054032;28;20028;-76
2021/10/10 07:11:51;;;;;;;137.60;40.28;;;9.20;99.90;;;;;;5054574;28;20052;-77
2021/10/10 07:14:17;;;;;;;93.90;42.03;;;9.30;99.90;;;;;;5054370;28;20354;-76
2021/10/10 07:16:43;;;;;;;113.75;40.83;;;9.30;99.90;;;;;;5056289;28;20025;-76
2021/10/10 07:19:09;;;;;;;181.52;51.95;;;9.30;99.90;;;;;;5054883;28;20021;-76
2021/10/10 07:26:36;;;;;;;141.38;51.65;;;9.20;99.90;;;;;;5075075;28;20162;-76
2021/10/10 07:29:02;;;;;;;151.13;55.55;;;9.10;99.90;;;;;;5066481;28;20044;-75
2021/10/10 07:31:28;;;;;;;128.15;49.67;;;9.10;99.90;;;;;;5055328;28;20040;-76
2021/10/10 07:33:54;;;;;;;130.50;49.95;;;9.00;99.90;;;;;;5054919;28;20469;-77
2021/10/10 07:36:19;;;;;;;441.70;97.32;;;9.20;99.90;;;;;;5054917;28;20031;-76
2021/10/10 07:38:45;;;;;;;299.73;75.53;;;9.10;99.90;;;;;;5054454;28;20021;-77
2021/10/10 07:41:11;;;;;;;85.18;48.63;;;9.10;99.90;;;;;;5054852;28;20028;-76
2021/10/10 07:43:39;;;;;;;108.28;55.47;;;9.10;99.90;;;;;;5065532;28;20034;-76
2021/10/10 07:46:19;;;;;;;118.47;58.60;;;9.30;99.90;;;;;;5074627;28;20016;-76
2021/10/10 07:48:45;;;;;;;136.80;58.80;;;9.40;99.90;;;;;;5074555;28;20024;-76
2021/10/10 07:51:10;;;;;;;541.83;104.00;;;9.60;99.90;;;;;;5074338;28;20354;-76
2021/10/10 07:53:36;;;;;;;161.75;64.72;;;9.70;99.90;;;;;;5073308;28;20029;-76
2021/10/10 07:56:01;;;;;;;151.52;62.90;;;9.80;99.90;;;;;;5074194;28;20377;-76
2021/10/10 07:58:27;;;;;;;129.90;62.08;;;9.90;99.90;;;;;;5070401;28;20032;-76
2021/10/10 08:00:53;;;;;;;128.35;65.85;;;10.00;99.90;;;;;;5054083;28;20028;-77
2021/10/10 08:03:18;;;;;;;144.48;67.30;;;9.90;99.90;;;;;;5062531;28;20070;-76
2021/10/10 08:05:44;;;;;;;145.80;66.22;;;10.00;99.90;;;;;;5073792;28;20020;-76
2021/10/10 08:08:11;;;;;;;146.52;69.85;;;10.10;99.90;;;;;;5074146;28;20085;-76
2021/10/10 08:10:38;;;;;;;177.57;69.00;;;10.10;99.90;;;;;;5073823;28;20024;-76
2021/10/10 08:13:05;;;;;;;221.85;78.32;;;10.20;99.90;;;;;;5073920;28;20038;-76
2021/10/10 08:15:31;;;;;;;275.00;96.13;;;10.30;99.90;;;;;;5074242;28;20024;-76
2021/10/10 08:17:57;;;;;;;220.50;71.85;;;10.30;99.90;;;;;;5073752;28;20479;-76
2021/10/10 08:20:23;;;;;;;193.77;72.93;;;10.30;99.90;;;;;;5073363;28;20029;-76
2021/10/10 08:22:49;;;;;;;299.33;93.75;;;10.20;99.90;;;;;;5071438;28;20024;-76
2021/10/10 08:25:16;;;;;;;220.25;87.82;;;10.20;99.90;;;;;;5071020;28;20029;-76
2021/10/10 08:27:44;;;;;;;302.25;98.47;;;10.30;99.90;;;;;;5071799;28;20111;-76
2021/10/10 08:30:13;;;;;;;191.55;80.07;;;10.40;99.90;;;;;;5056624;28;20033;-76
2021/10/10 08:32:40;;;;;;;380.48;99.28;;;10.50;99.90;;;;;;5053044;28;20515;-76
2021/10/10 08:35:07;;;;;;;317.90;91.90;;;10.50;99.90;;;;;;5053278;28;20028;-76
2021/10/10 08:37:33;;;;;;;185.68;78.63;;;10.50;99.90;;;;;;5061472;28;20441;-76
2021/10/10 08:39:59;;;;;;;198.23;79.97;;;10.60;99.90;;;;;;5072887;28;20475;-76
2021/10/10 08:42:30;;;;;;;165.93;79.38;;;10.60;99.90;;;;;;5073054;28;20025;-76
2021/10/10 08:45:08;;;;;;;168.48;80.78;;;10.70;99.90;;;;;;5073351;28;20021;-77
2021/10/10 08:47:42;;;;;;;185.82;77.55;;;10.80;99.90;;;;;;5072631;28;20066;-76
2021/10/10 08:50:17;;;;;;;166.73;76.93;;;10.90;99.90;;;;;;5071551;28;20044;-77
2021/10/10 08:52:48;;;;;;;191.35;77.15;;;11.00;99.90;;;;;;5058867;28;20081;-76
2021/10/10 08:55:14;;;;;;;165.18;78.28;;;11.00;99.90;;;;;;5072018;28;20031;-76
2021/10/10 08:57:41;;;;;;;222.15;85.70;;;11.10;99.90;;;;;;5063621;28;20070;-77
2021/10/10 09:00:19;;;;;;;170.45;83.32;;;11.10;99.90;;;;;;5059351;28;20116;-78
2021/10/10 09:02:47;;;;;;;176.07;86.50;;;11.10;99.90;;;;;;5061689;28;20488;-77
2021/10/10 09:05:14;;;;;;;163.43;80.38;;;11.20;99.90;;;;;;5057356;28;21322;-77
2021/10/10 09:07:40;;;;;;;151.38;80.25;;;11.20;99.90;;;;;;5065724;28;20100;-77
2021/10/10 09:10:28;;;;;;;167.27;81.75;;;11.20;99.90;;;;;;5067407;28;20055;-75
2021/10/10 09:13:05;;;;;;;196.50;88.95;;;11.30;99.90;;;;;;5061948;28;20021;-74
2021/10/10 09:15:31;;;;;;;184.75;88.32;;;11.40;99.90;;;;;;5058174;28;20032;-75
2021/10/10 09:17:59;;;;;;;184.13;87.70;;;11.40;99.90;;;;;;5058623;28;20039;-76
2021/10/10 09:20:33;;;;;;;181.57;86.68;;;11.50;99.90;;;;;;5061024;28;20522;-76
2021/10/10 09:23:00;;;;;;;190.05;89.20;;;11.60;99.90;;;;;;5058138;28;20480;-76
2021/10/10 09:25:26;;;;;;;175.57;88.13;;;11.60;99.90;;;;;;5057767;28;20155;-76
2021/10/10 09:27:52;;;;;;;167.50;80.97;;;11.70;99.90;;;;;;5059860;28;20108;-76
2021/10/10 09:30:22;;;;;;;181.23;91.30;;;11.80;99.90;;;;;;5063516;28;20025;-76
2021/10/10 09:32:54;;;;;;;162.85;83.28;;;11.90;99.90;;;;;;5059183;28;20023;-76
2021/10/10 09:35:29;;;;;;;171.20;88.28;;;12.00;99.90;;;;;;5061351;28;20044;-76
2021/10/10 09:38:21;;;;;;;181.05;90.90;;;12.10;99.90;;;;;;5064872;28;20025;-75
2021/10/10 09:41:00;;;;;;;168.40;88.10;;;12.10;99.90;;;;;;5062871;28;20052;-77
2021/10/10 09:43:26;;;;;;;168.05;86.40;;;12.20;99.90;;;;;;5057739;28;20021;-76
2021/10/10 09:45:55;;;;;;;174.60;89.70;;;12.20;99.90;;;;;;5065441;28;20391;-76
2021/10/10 09:48:35;;;;;;;187.57;95.35;;;12.30;99.90;;;;;;5061072;28;20526;-76
2021/10/10 09:51:01;;;;;;;185.10;94.50;;;12.30;99.90;;;;;;5063445;28;20031;-76
2021/10/10 09:53:32;;;;;;;198.73;99.75;;;12.30;99.90;;;;;;5060773;28;20033;-74
2021/10/10 09:56:06;;;;;;;183.00;94.18;;;12.30;99.90;;;;;;5061275;28;20480;-74
2021/10/10 09:58:39;;;;;;;191.40;97.78;;;12.30;99.90;;;;;;5065381;28;20024;-75
2021/10/10 10:01:22;;;;;;;174.00;92.10;;;12.40;99.90;;;;;;5062634;28;20028;-74
2021/10/10 10:04:00;;;;;;;174.05;88.80;;;12.60;99.90;;;;;;5064115;28;20112;-74
2021/10/10 10:06:27;;;;;;;173.85;90.15;;;12.80;99.90;;;;;;5062122;28;20115;-74
2021/10/10 10:09:01;;;;;;;164.02;88.78;;;12.90;99.90;;;;;;5062034;28;20032;-74
2021/10/10 10:11:30;;;;;;;162.05;86.90;;;13.10;99.90;;;;;;5057942;28;20051;-74
2021/10/10 10:13:59;;;;;;;161.40;88.72;;;13.20;99.90;;;;;;5061396;28;20035;-75
2021/10/10 10:16:27;;;;;;;153.18;86.60;;;13.30;99.90;;;;;;5065673;28;20074;-74
2021/10/10 10:18:53;;;;;;;157.48;87.05;;;13.30;99.90;;;;;;5061244;28;20029;-76
2021/10/10 10:21:19;;;;;;;147.93;82.05;;;13.40;99.90;;;;;;5059302;28;20071;-75
2021/10/10 10:23:45;;;;;;;147.52;81.85;;;13.40;99.90;;;;;;5060658;28;20040;-74
2021/10/10 10:26:11;;;;;;;132.00;77.35;;;13.40;99.90;;;;;;5067368;28;20037;-74
2021/10/10 10:28:38;;;;;;;141.35;78.00;;;13.40;99.90;;;;;;5055840;28;20051;-74
2021/10/10 10:31:04;;;;;;;127.18;77.53;;;13.50;99.90;;;;;;5057967;28;20292;-75
2021/10/10 10:33:31;;;;;;;129.38;78.18;;;13.50;99.90;;;;;;5060770;28;20029;-75
2021/10/10 10:35:57;;;;;;;129.95;77.43;;;13.50;99.90;;;;;;5061226;28;20025;-74
2021/10/10 10:38:42;;;;;;;131.02;81.32;;;13.60;99.90;;;;;;5060149;28;20032;-75
2021/10/10 10:41:45;;;;;;;131.45;80.15;;;13.50;99.90;;;;;;5056398;28;20113;-74
2021/10/10 10:44:39;;;;;;;126.30;80.07;;;13.50;99.90;;;;;;5065015;28;20021;-74
2021/10/10 10:47:16;;;;;;;123.75;76.78;;;13.50;99.90;;;;;;5055947;28;20469;-74
2021/10/10 10:49:52;;;;;;;134.57;78.90;;;13.60;99.90;;;;;;5066575;28;20444;-74
2021/10/10 10:52:34;;;;;;;117.53;71.95;;;13.70;99.90;;;;;;5060696;28;20552;-74
2021/10/10 10:55:05;;;;;;;123.57;74.40;;;13.90;99.90;;;;;;5063437;28;20024;-74
2021/10/10 10:57:38;;;;;;;126.18;79.10;;;14.00;99.90;;;;;;5061484;28;20530;-75
2021/10/10 11:00:12;;;;;;;111.32;68.35;;;14.20;99.90;;;;;;5065394;28;20452;-74
2021/10/10 11:03:08;;;;;;;108.82;69.03;;;14.40;99.90;;;;;;5061525;28;20427;-74
2021/10/10 11:05:40;;;;;;;103.85;61.60;;;14.50;99.90;;;;;;5053716;28;20039;-74
2021/10/10 11:08:39;;;;;;;103.53;64.22;;;14.60;99.90;;;;;;5055201;28;20056;-74
2021/10/10 11:11:05;;;;;;;109.18;66.63;;;14.70;99.90;;;;;;5063958;28;20477;-74
2021/10/10 11:13:44;;;;;;;104.82;63.95;;;14.70;99.90;;;;;;5066353;28;20039;-74
2021/10/10 11:16:19;;;;;;;103.53;62.15;;;14.80;99.90;;;;;;5070785;28;20545;-75
2021/10/10 11:18:56;;;;;;;97.97;60.53;;;14.80;99.90;;;;;;5061155;28;20491;-75
2021/10/10 11:21:24;;;;;;;96.47;60.47;;;14.80;99.90;;;;;;5065207;28;20067;-75
2021/10/10 11:23:52;;;;;;;81.43;51.40;;;14.90;99.90;;;;;;5068828;28;20028;-76
2021/10/10 11:26:19;;;;;;;81.60;52.22;;;15.10;99.90;;;;;;5061369;28;20033;-74
2021/10/10 11:28:47;;;;;;;81.60;50.90;;;15.20;99.90;;;;;;5061289;28;20366;-74
2021/10/10 11:31:24;;;;;;;78.30;51.33;;;15.30;99.90;;;;;;5062044;28;20386;-74
2021/10/10 11:33:57;;;;;;;73.75;46.45;;;15.40;99.90;;;;;;5057278;28;20032;-75
2021/10/10 11:36:48;;;;;;;70.05;46.47;;;15.50;99.90;;;;;;5059732;28;20492;-77
2021/10/10 11:39:15;;;;;;;74.05;45.75;;;15.50;99.90;;;;;;5061636;28;20503;-79
2021/10/10 11:41:42;;;;;;;80.22;48.97;;;15.70;99.90;;;;;;5062572;28;20024;-75
2021/10/10 11:44:11;;;;;;;75.25;47.50;;;15.80;99.90;;;;;;5062289;28;20029;-75
2021/10/10 11:46:43;;;;;;;74.63;46.10;;;15.90;99.90;;;;;;5060910;28;20043;-75
2021/10/10 11:49:32;;;;;;;72.60;44.75;;;15.90;99.90;;;;;;5065681;28;20043;-76
2021/10/10 11:52:12;;;;;;;64.32;41.65;;;15.90;99.90;;;;;;5060558;28;20107;-76
2021/10/10 11:54:40;;;;;;;69.55;43.95;;;16.00;99.90;;;;;;5061723;28;20481;-76
2021/10/10 11:57:07;;;;;;;63.03;41.17;;;16.00;99.90;;;;;;5057962;28;20013;-75
2021/10/10 11:59:37;;;;;;;58.97;35.50;;;16.00;99.90;;;;;;5060863;28;20048;-78
2021/10/10 12:02:03;;;;;;;56.38;36.03;;;16.10;99.90;;;;;;5059859;28;20032;-78
2021/10/10 12:04:29;;;;;;;61.15;36.38;;;16.20;99.90;;;;;;5059701;28;20409;-78
2021/10/10 12:06:54;;;;;;;53.47;34.50;;;16.30;99.90;;;;;;5064358;28;20411;-77
2021/10/10 12:09:21;;;;;;;55.85;36.35;;;16.40;99.90;;;;;;5066691;28;20107;-80
2021/10/10 12:12:07;;;;;;;66.10;39.10;;;16.50;99.90;;;;;;5055009;28;20021;-77
2021/10/10 12:14:52;;;;;;;58.20;39.00;;;16.50;99.90;;;;;;5062073;28;20018;-77
2021/10/10 12:17:33;;;;;;;66.28;39.60;;;16.40;99.90;;;;;;5065379;28;20017;-80
2021/10/10 12:20:04;;;;;;;57.50;35.05;;;16.40;99.90;;;;;;5059884;28;20029;-79
2021/10/10 12:22:30;;;;;;;53.28;34.63;;;16.50;99.90;;;;;;5061905;28;20469;-79
2021/10/10 12:24:56;;;;;;;52.47;33.22;;;16.60;99.90;;;;;;5057408;28;20488;-75
2021/10/10 12:27:30;;;;;;;50.97;34.45;;;16.60;99.90;;;;;;5065783;28;20091;-80
2021/10/10 12:29:57;;;;;;;50.78;32.70;;;16.60;99.90;;;;;;5062864;28;20120;-77
2021/10/10 12:32:28;;;;;;;54.38;32.58;;;16.70;99.90;;;;;;5061720;28;20017;-77
2021/10/10 12:35:09;;;;;;;46.30;30.85;;;16.70;99.90;;;;;;5059822;28;20087;-77
2021/10/10 12:37:35;;;;;;;51.28;32.20;;;16.60;99.90;;;;;;5058970;28;20029;-78
2021/10/10 12:40:01;;;;;;;53.13;32.80;;;16.70;99.90;;;;;;5063359;28;20013;-79